Latest Weather Observations for Leinster

IDW60801

Issued at 6:03 pm WST Friday 29 July 2016 (issued every 30 minutes, with the page automatically refreshed every 10 minutes)

About weather observations | Map of weather stations | Latest weather observations for WA | Other Formats
Station Details ID: 012314 Name: LEINSTER AERO Lat: -27.84 Lon: 120.70 Height: 497.0 m
Data from the previous 72 hours. | See also: Recent months at Leinster
Date/Time
WST
Temp
°C
App
Temp
°C
Dew
Point
°C
Rel
Hum
%
Delta-T
°C
Wind Press
QNH
hPa
Press
MSL
hPa
Rain since
9am
mm
Dir  Spd
km/h
Gust
km/h
Spd
kts
Gust
kts
29/06:00pm 23.1 20.0 3.6 28 9.7 NW 9 11 5 6 1017.3 1017.0 0.0
29/05:30pm 24.3 20.7 3.0 25 10.6 NNW 11 15 6 8 1016.8 1016.4 0.0
29/05:00pm 25.8 21.0 2.5 22 11.6 NNW 17 24 9 13 1016.7 1016.3 0.0
29/04:30pm 26.6 21.3 1.8 20 12.2 NW 19 28 10 15 1016.8 1016.4 0.0
29/04:00pm 27.3 22.4 1.7 19 12.6 NW 17 26 9 14 1016.7 1016.3 0.0
29/03:30pm 27.1 22.0 0.8 18 12.8 NW 17 26 9 14 1016.7 1016.3 0.0
29/03:00pm 27.1 21.4 0.8 18 12.8 NW 20 30 11 16 1016.8 1016.4 0.0
29/02:30pm 27.1 21.7 1.5 19 12.6 NNW 19 28 10 15 1016.8 1016.4 0.0
29/02:00pm 27.2 21.9 1.6 19 12.6 NW 19 26 10 14 1016.9 1016.6 0.0
29/01:30pm 26.8 21.4 1.3 19 12.5 NW 19 32 10 17 1017.3 1017.0 0.0
29/01:00pm 26.6 20.9 0.4 18 12.6 NNW 20 26 11 14 1017.8 1017.5 0.0
29/12:30pm 26.2 21.0 0.0 18 12.5 NNW 17 28 9 15 1018.3 1017.9 0.0
29/12:00pm 26.0 20.0 1.3 20 12.0 NNW 22 30 12 16 1019.1 1018.8 0.0
29/11:30am 25.1 19.5 -0.1 19 11.9 N 19 30 10 16 1019.6 1019.3 0.0
29/11:00am 24.2 18.4 -0.2 20 11.4 NNW 20 32 11 17 1020.4 1020.1 0.0
29/10:30am 22.7 17.2 1.7 25 10.1 N 20 26 11 14 1020.7 1020.4 0.0
29/10:00am 21.0 15.5 1.8 28 9.1 N 20 28 11 15 1021.1 1020.8 0.0
29/09:30am 19.0 14.5 2.4 33 7.8 N 15 20 8 11 1021.3 1021.0 0.0
29/09:00am 17.5 12.6 2.3 36 7.1 NNW 17 24 9 13 1021.2 1020.9 0.0
29/08:30am 16.7 11.4 2.0 37 6.8 N 19 28 10 15 1020.9 1020.6 0.0
29/08:00am 16.7 11.8 2.0 37 6.7 N 17 22 9 12 1021.1 1020.8 0.0
29/07:30am 15.5 11.4 2.0 40 6.1 N 13 17 7 9 1021.1 1020.8 0.0
29/07:00am 14.9 10.8 2.1 42 5.8 N 13 15 7 8 1020.7 1020.4 0.0
29/06:30am 14.7 10.9 1.9 42 5.8 N 11 15 6 8 1020.7 1020.4 0.0
29/06:00am 14.0 9.9 2.0 44 5.4 N 13 15 7 8 1020.4 1020.1 0.0
29/05:30am 14.2 9.6 1.5 42 5.7 N 15 19 8 10 1020.1 1019.8 0.0
29/05:00am 14.1 9.4 1.1 41 5.7 N 15 17 8 9 1020.0 1019.7 0.0
29/04:30am 14.6 10.2 0.5 38 6.2 N 13 17 7 9 1019.8 1019.5 0.0
29/04:00am 15.0 10.2 0.4 37 6.4 N 15 19 8 10 1019.8 1019.5 0.0
29/03:30am 15.7 10.5 0.3 35 6.8 N 17 20 9 11 1019.7 1019.4 0.0
29/03:00am 16.6 11.4 -0.1 32 7.3 N 17 22 9 12 1019.9 1019.6 0.0
29/02:30am 16.5 11.8 0.6 34 7.1 N 15 19 8 10 1020.2 1019.9 0.0
29/02:00am 16.2 11.8 0.3 34 7.0 N 13 17 7 9 1020.6 1020.3 0.0
29/01:30am 16.1 11.7 0.3 34 7.0 N 13 17 7 9 1020.9 1020.6 0.0
29/01:00am 16.1 11.8 1.0 36 6.7 N 13 17 7 9 1021.0 1020.7 0.0
29/12:30am 16.0 11.7 1.3 37 6.6 N 13 15 7 8 1021.3 1021.0 0.0
29/12:00am 16.9 12.2 1.0 34 7.2 NNE 15 17 8 9 1021.3 1021.0 0.0
 
Date/Time
WST
Temp
°C
App
Temp
°C
Dew
Point
°C
Rel
Hum
%
Delta-T
°C
Wind Press
QNH
hPa
Press
MSL
hPa
Rain since
9am
mm
Dir  Spd
km/h
Gust
km/h
Spd
kts
Gust
kts
28/11:30pm 16.9 12.1 0.5 33 7.3 NNE 15 17 8 9 1021.5 1021.2 0.0
28/11:00pm 17.2 12.9 0.8 33 7.4 NNE 13 17 7 9 1021.9 1021.6 0.0
28/10:30pm 16.9 12.7 1.4 35 7.1 NNE 13 15 7 8 1022.0 1021.8 0.0
28/10:00pm 16.7 12.9 1.6 36 6.9 NNE 11 15 6 8 1022.1 1021.9 0.0
28/09:30pm 16.8 12.6 1.7 36 6.9 NE 13 15 7 8 1022.2 1022.0 0.0
28/09:00pm 16.8 13.0 2.0 37 6.8 NE 11 15 6 8 1022.1 1021.9 0.0
28/08:30pm 17.4 13.7 2.2 36 7.1 NE 11 13 6 7 1022.2 1022.0 0.0
28/08:00pm 17.8 14.1 2.2 35 7.2 NE 11 13 6 7 1022.0 1021.8 0.0
28/07:30pm 18.0 14.7 2.7 36 7.2 NE 9 11 5 6 1022.0 1021.8 0.0
28/07:00pm 18.1 14.9 3.2 37 7.1 NE 9 11 5 6 1021.9 1021.6 0.0
28/06:30pm 18.2 15.0 3.3 37 7.1 ENE 9 11 5 6 1021.8 1021.5 0.0
28/06:00pm 18.3 15.0 2.6 35 7.4 E 9 9 5 5 1021.8 1021.5 0.0
28/05:30pm 20.1 17.3 2.0 30 8.6 ENE 6 6 3 3 1021.7 1021.4 0.0
28/05:00pm 21.5 18.6 1.7 27 9.4 N 6 11 3 6 1021.7 1021.4 0.0
28/04:30pm 22.3 19.1 0.8 24 10.1 NW 7 11 4 6 1021.4 1021.1 0.0
28/04:00pm 22.0 18.7 2.2 27 9.5 N 9 13 5 7 1021.4 1021.1 0.0
28/03:30pm 22.3 18.8 1.3 25 10.0 N 9 17 5 9 1021.4 1021.1 0.0
28/03:00pm 23.1 19.5 0.9 23 10.5 N 9 19 5 10 1021.3 1021.0 0.0
28/02:30pm 22.7 18.7 0.5 23 10.4 NNW 11 20 6 11 1021.4 1021.1 0.0
28/02:00pm 22.8 18.2 1.8 25 10.1 N 15 22 8 12 1021.5 1021.2 0.0
28/01:30pm 22.3 17.2 0.8 24 10.1 NNW 17 22 9 12 1021.9 1021.6 0.0
28/01:00pm 21.0 15.4 0.2 25 9.5 NNW 19 28 10 15 1022.3 1022.1 0.0
28/12:30pm 20.6 15.4 0.4 26 9.3 N 17 24 9 13 1022.9 1022.6 0.0
28/12:00pm 20.9 15.3 1.2 27 9.2 N 20 32 11 17 1023.3 1023.0 0.0
28/11:30am 20.2 13.8 1.1 28 8.9 NNE 24 32 13 17 1023.8 1023.6 0.0
28/11:00am 19.4 13.8 1.4 30 8.3 NNE 20 28 11 15 1024.2 1024.0 0.0
28/10:30am 18.3 12.5 2.2 34 7.5 NNE 22 32 12 17 1024.7 1024.4 0.0
28/10:00am 17.4 12.2 3.3 39 6.7 NNE 20 30 11 16 1025.1 1024.8 0.0
28/09:30am 14.8 10.0 2.7 44 5.6 N 17 24 9 13 1025.6 1025.4 0.0
28/09:00am 14.0 9.7 3.2 48 5.0 NNE 15 22 8 12 1025.7 1025.5 0.0
28/08:30am 12.4 7.7 3.4 54 4.1 NNE 17 22 9 12 1025.3 1025.0 0.0
28/08:23am 11.9 8.1 3.7 57 3.8 NE 13 20 7 11 1025.4 1025.1 0.0
28/08:00am 6.8 5.0 3.2 78 1.6 SSW 2 6 1 3 1025.5 1025.3 0.0
28/07:30am 4.9 2.2 2.8 86 0.9 SE 6 6 3 3 1025.2 1024.9 0.0
28/07:00am 5.3 2.4 2.5 82 1.2 E 7 9 4 5 1024.7 1024.4 0.0
28/06:30am 5.3 1.2 2.5 82 1.2 ENE 13 15 7 8 1024.3 1024.1 0.0
28/06:00am 4.9 1.5 2.1 82 1.2 ENE 9 9 5 5 1024.5 1024.3 0.0
28/05:30am 5.4 0.9 2.1 79 1.4 ENE 15 17 8 9 1024.2 1024.0 0.0
28/05:00am 5.9 1.7 1.8 75 1.7 NE 13 17 7 9 1024.2 1024.0 0.0
28/04:30am 6.7 2.2 2.0 72 2.0 NE 15 19 8 10 1024.1 1023.9 0.0
28/04:00am 5.9 2.2 2.2 77 1.5 NE 11 15 6 8 1024.4 1024.2 0.0
28/03:30am 5.7 1.6 2.2 78 1.5 ENE 13 15 7 8 1024.5 1024.3 0.0
28/03:00am 5.6 1.9 2.3 79 1.4 ENE 11 11 6 6 1024.7 1024.4 0.0
28/02:30am 6.2 2.7 1.5 72 1.9 E 9 11 5 6 1024.5 1024.3 0.0
28/02:00am 6.9 3.0 1.4 68 2.3 E 11 13 6 7 1024.3 1024.1 0.0
28/01:30am 8.6 4.8 1.5 61 3.0 NE 11 13 6 7 1024.5 1024.3 0.0
28/01:00am 9.8 5.1 0.9 54 3.7 NE 15 19 8 10 1024.5 1024.3 0.0
28/12:30am 10.7 5.6 1.0 51 4.1 NNE 17 20 9 11 1024.4 1024.2 0.0
28/12:00am 10.9 6.2 1.2 51 4.1 NNE 15 20 8 11 1024.8 1024.5 0.0
 
Date/Time
WST
Temp
°C
App
Temp
°C
Dew
Point
°C
Rel
Hum
%
Delta-T
°C
Wind Press
QNH
hPa
Press
MSL
hPa
Rain since
9am
mm
Dir  Spd
km/h
Gust
km/h
Spd
kts
Gust
kts
27/11:30pm 10.1 5.9 1.7 56 3.6 NE 13 17 7 9 1024.7 1024.4 0.0
27/11:00pm 10.1 6.0 2.2 58 3.4 NE 13 15 7 8 1024.9 1024.6 0.0
27/10:30pm 10.3 6.3 2.9 60 3.3 NE 13 17 7 9 1024.9 1024.6 0.0
27/10:00pm 9.9 6.3 3.2 63 3.0 NE 11 13 6 7 1025.0 1024.7 0.0
27/09:30pm 7.9 5.1 3.0 71 2.1 ENE 7 9 4 5 1025.7 1025.5 0.0
27/09:00pm 9.5 6.3 2.8 63 2.9 NE 9 11 5 6 1025.8 1025.6 0.0
27/08:30pm 9.6 6.0 2.7 62 3.0 NE 11 11 6 6 1025.3 1025.0 0.0
27/08:00pm 10.5 7.1 2.1 56 3.6 ENE 9 11 5 6 1025.2 1024.9 0.0
27/07:30pm 10.8 7.9 2.4 56 3.7 ENE 7 9 4 5 1025.1 1024.8 0.0
27/07:00pm 12.9 9.5 1.9 47 4.9 ENE 9 11 5 6 1024.7 1024.4 0.0
27/06:30pm 13.0 9.2 2.0 47 4.9 E 11 13 6 7 1024.2 1024.0 0.0
27/06:00pm 14.2 10.9 2.5 45 5.3 ENE 9 11 5 6 1024.2 1024.0 0.0
27/05:30pm 15.9 12.5 2.0 39 6.4 ENE 9 11 5 6 1024.3 1024.1 0.0
27/05:00pm 17.3 13.1 1.7 35 7.1 ENE 13 17 7 9 1024.3 1024.1 0.0
27/04:30pm 17.4 12.8 1.8 35 7.2 ENE 15 19 8 10 1024.8 1024.5 0.0
27/04:00pm 18.7 14.2 2.1 33 7.7 ENE 15 20 8 11 1024.8 1024.5 0.0
27/03:30pm 18.3 13.9 2.6 35 7.4 E 15 22 8 12 1024.7 1024.4 0.0
27/03:00pm 18.0 13.8 1.9 34 7.4 ENE 13 20 7 11 1024.7 1024.4 0.0
27/02:30pm 18.3 14.6 2.2 34 7.5 ENE 11 20 6 11 1025.0 1024.7 0.0
27/02:00pm 17.4 12.5 2.2 36 7.0 ENE 17 28 9 15 1024.7 1024.4 0.0
27/01:30pm 16.9 12.1 2.5 38 6.7 NE 17 24 9 13 1025.1 1024.8 0.0
27/01:00pm 17.6 12.9 3.1 38 6.8 ENE 17 28 9 15 1025.4 1025.1 0.0
27/12:30pm 17.1 12.6 4.1 42 6.3 ENE 17 24 9 13 1025.6 1025.4 0.0
27/12:00pm 16.1 11.4 3.2 42 6.0 E 17 28 9 15 1026.2 1026.0 0.0
27/11:30am 15.9 11.0 4.0 45 5.7 ENE 19 28 10 15 1027.2 1026.9 0.0
27/11:00am 14.8 9.6 3.6 47 5.2 NE 20 28 11 15 1027.5 1027.3 0.0
27/10:30am 14.7 9.2 4.1 49 5.0 ENE 22 28 12 15 1027.9 1027.7 0.0
27/10:00am 13.0 7.5 4.2 55 4.1 ENE 22 28 12 15 1027.8 1027.6 0.0
27/09:30am 13.0 8.5 4.4 56 4.0 ENE 17 22 9 12 1028.5 1028.3 0.0
27/09:00am 10.8 6.3 4.0 63 3.1 ENE 17 22 9 12 1027.9 1027.7 0.0
27/08:30am 9.7 6.4 4.7 71 2.3 E 11 17 6 9 1027.9 1027.7 0.0
27/08:00am 7.5 4.6 4.8 83 1.2 ESE 9 11 5 6 1027.5 1027.3 0.0
27/07:30am 5.6 3.3 4.9 95 0.3 E 6 7 3 4 1027.3 1027.1 0.0
27/07:00am 3.6 0.8 3.2 97 0.2 E 7 9 4 5 1027.0 1026.7 0.0
27/06:30am 3.0 0.3 2.6 97 0.2 E 6 7 3 4 1027.1 1026.8 0.0
27/06:00am 3.5 0.7 3.1 97 0.2 ENE 7 9 4 5 1026.4 1026.2 0.0
27/05:30am 3.2 0.0 2.8 97 0.2 ENE 9 9 5 5 1026.2 1026.0 0.0
27/05:00am 2.8 0.4 2.4 97 0.2 ENE 4 9 2 5 1026.0 1025.8 0.0
27/04:30am 4.3 1.5 3.4 94 0.4 E 7 11 4 6 1026.0 1025.8 0.0
27/04:00am 3.1 1.2 2.7 97 0.2 E 2 9 1 5 1025.6 1025.4 0.0
27/03:30am 3.9 1.2 2.6 91 0.5 E 6 7 3 4 1025.7 1025.5 0.0
27/03:00am 5.4 2.6 2.9 84 1.1 ENE 7 9 4 5 1025.5 1025.3 0.0
27/02:30am 6.1 2.5 2.9 80 1.4 E 11 13 6 7 1025.6 1025.4 0.0
27/02:00am 6.5 2.9 3.1 79 1.5 E 11 15 6 8 1025.6 1025.4 0.0
27/01:30am 6.5 3.8 2.8 77 1.6 ESE 6 9 3 5 1026.0 1025.8 0.0
27/01:00am 7.1 4.3 3.0 75 1.8 ESE 7 9 4 5 1026.3 1026.1 0.0
27/12:30am 6.9 3.7 3.2 77 1.6 E 9 11 5 6 1026.6 1026.4 0.0
27/12:00am 5.8 3.0 3.1 83 1.1 E 7 9 4 5 1026.8 1026.5 0.0
 
Date/Time
WST
Temp
°C
App
Temp
°C
Dew
Point
°C
Rel
Hum
%
Delta-T
°C
Wind Press
QNH
hPa
Press
MSL
hPa
Rain since
9am
mm
Dir  Spd
km/h
Gust
km/h
Spd
kts
Gust
kts
26/11:30pm 7.1 4.3 3.0 75 1.8 E 7 9 4 5 1026.6 1026.4 0.0
26/11:00pm 7.8 5.1 2.9 71 2.1 E 6 7 3 4 1026.8 1026.5 0.0
26/10:30pm 8.3 5.5 3.2 70 2.2 ESE 7 9 4 5 1026.9 1026.6 0.0
26/10:00pm 7.5 4.9 3.0 73 1.9 SE 6 7 3 4 1026.5 1026.3 0.0
26/09:30pm 8.0 6.0 2.5 68 2.4 SE 2 6 1 3 1026.8 1026.5 0.0
26/09:00pm 9.8 6.5 2.4 60 3.2 SE 9 9 5 5 1026.6 1026.4 0.0
26/08:30pm 10.7 7.4 2.3 56 3.7 SE 9 11 5 6 1026.5 1026.3 0.0
26/08:00pm 11.2 8.2 2.0 53 4.0 SE 7 9 4 5 1026.4 1026.2 0.0
26/07:30pm 11.9 8.6 2.4 52 4.2 SSE 9 13 5 7 1026.1 1025.9 0.0
26/07:00pm 12.7 8.9 2.0 48 4.7 SSE 11 13 6 7 1025.9 1025.7 0.0
26/06:30pm 13.5 9.4 2.1 46 5.1 SSE 13 17 7 9 1025.6 1025.4 0.0

Other Formats:

Comma delimited format used in spreadsheet applications
http://www.bom.gov.au/fwo/IDW60801/IDW60801.95448.axf

JavaScript Object Notation format (JSON) in row-major order
http://www.bom.gov.au/fwo/IDW60801/IDW60801.95448.json